sensor_id;sensor_type;location;lat;lon;timestamp;temperature;humidity
59923;DHT22;45778;51.142;3.732;2023-04-24T00:02:22;9.10;99.90
59923;DHT22;45778;51.142;3.732;2023-04-24T00:04:49;9.00;99.90
59923;DHT22;45778;51.142;3.732;2023-04-24T00:07:15;9.00;99.90
59923;DHT22;45778;51.142;3.732;2023-04-24T00:09:42;9.00;99.90
59923;DHT22;45778;51.142;3.732;2023-04-24T00:12:09;9.00;99.90
59923;DHT22;45778;51.142;3.732;2023-04-24T00:14:35;9.00;99.90
59923;DHT22;45778;51.142;3.732;2023-04-24T00:17:01;9.00;99.90
59923;DHT22;45778;51.142;3.732;2023-04-24T00:19:28;8.90;99.90
59923;DHT22;45778;51.142;3.732;2023-04-24T00:21:54;8.90;99.90
59923;DHT22;45778;51.142;3.732;2023-04-24T00:24:20;8.90;99.90
59923;DHT22;45778;51.142;3.732;2023-04-24T00:26:46;9.00;99.90
59923;DHT22;45778;51.142;3.732;2023-04-24T00:29:12;8.90;99.90
59923;DHT22;45778;51.142;3.732;2023-04-24T00:31:38;9.00;99.90
59923;DHT22;45778;51.142;3.732;2023-04-24T00:34:03;9.00;99.90
59923;DHT22;45778;51.142;3.732;2023-04-24T00:36:30;9.10;99.90
59923;DHT22;45778;51.142;3.732;2023-04-24T00:38:56;9.10;99.90
59923;DHT22;45778;51.142;3.732;2023-04-24T00:41:22;9.10;99.90
59923;DHT22;45778;51.142;3.732;2023-04-24T00:43:49;9.10;99.90
59923;DHT22;45778;51.142;3.732;2023-04-24T00:46:16;9.10;99.90
59923;DHT22;45778;51.142;3.732;2023-04-24T00:48:43;9.20;99.90
59923;DHT22;45778;51.142;3.732;2023-04-24T00:51:09;9.10;99.90
59923;DHT22;45778;51.142;3.732;2023-04-24T00:53:35;9.10;99.90
59923;DHT22;45778;51.142;3.732;2023-04-24T00:56:01;9.10;99.90
59923;DHT22;45778;51.142;3.732;2023-04-24T00:58:27;9.10;99.90
59923;DHT22;45778;51.142;3.732;2023-04-24T01:00:54;9.10;99.90
59923;DHT22;45778;51.142;3.732;2023-04-24T01:03:22;9.00;99.90
59923;DHT22;45778;51.142;3.732;2023-04-24T01:05:49;9.10;99.90
59923;DHT22;45778;51.142;3.732;2023-04-24T01:08:16;9.20;99.90
59923;DHT22;45778;51.142;3.732;2023-04-24T01:10:42;9.10;99.90
59923;DHT22;45778;51.142;3.732;2023-04-24T01:13:09;9.00;99.90
59923;DHT22;45778;51.142;3.732;2023-04-24T01:15:35;9.00;99.90
59923;DHT22;45778;51.142;3.732;2023-04-24T01:18:01;9.00;99.90
59923;DHT22;45778;51.142;3.732;2023-04-24T01:20:26;9.00;99.90
59923;DHT22;45778;51.142;3.732;2023-04-24T01:22:54;9.00;99.90
59923;DHT22;45778;51.142;3.732;2023-04-24T01:25:22;9.10;99.90
59923;DHT22;45778;51.142;3.732;2023-04-24T01:27:47;8.90;99.90
59923;DHT22;45778;51.142;3.732;2023-04-24T01:30:13;8.80;99.90
59923;DHT22;45778;51.142;3.732;2023-04-24T01:32:40;8.70;99.90
59923;DHT22;45778;51.142;3.732;2023-04-24T01:35:09;8.60;99.90
59923;DHT22;45778;51.142;3.732;2023-04-24T01:37:35;8.60;99.90
59923;DHT22;45778;51.142;3.732;2023-04-24T01:40:04;8.50;99.90
59923;DHT22;45778;51.142;3.732;2023-04-24T01:42:30;8.50;99.90
59923;DHT22;45778;51.142;3.732;2023-04-24T01:44:57;8.50;99.90
59923;DHT22;45778;51.142;3.732;2023-04-24T01:47:23;8.40;99.90
59923;DHT22;45778;51.142;3.732;2023-04-24T01:49:50;8.40;99.90
59923;DHT22;45778;51.142;3.732;2023-04-24T01:52:16;8.40;99.90
59923;DHT22;45778;51.142;3.732;2023-04-24T01:54:43;8.40;99.90
59923;DHT22;45778;51.142;3.732;2023-04-24T01:57:08;8.40;99.90
59923;DHT22;45778;51.142;3.732;2023-04-24T01:59:34;8.60;99.90
59923;DHT22;45778;51.142;3.732;2023-04-24T02:02:02;8.40;99.90
59923;DHT22;45778;51.142;3.732;2023-04-24T02:04:28;8.70;99.90
59923;DHT22;45778;51.142;3.732;2023-04-24T02:06:53;8.50;99.90
59923;DHT22;45778;51.142;3.732;2023-04-24T02:09:19;8.50;99.90
59923;DHT22;45778;51.142;3.732;2023-04-24T02:11:45;8.50;99.90
59923;DHT22;45778;51.142;3.732;2023-04-24T02:14:10;8.50;99.90
59923;DHT22;45778;51.142;3.732;2023-04-24T02:16:36;8.50;99.90
59923;DHT22;45778;51.142;3.732;2023-04-24T02:19:02;8.50;99.90
59923;DHT22;45778;51.142;3.732;2023-04-24T02:21:28;8.70;99.90
59923;DHT22;45778;51.142;3.732;2023-04-24T02:23:54;8.60;99.90
59923;DHT22;45778;51.142;3.732;2023-04-24T02:26:20;8.60;99.90
59923;DHT22;45778;51.142;3.732;2023-04-24T02:28:46;8.60;99.90
59923;DHT22;45778;51.142;3.732;2023-04-24T02:31:11;8.60;99.90
59923;DHT22;45778;51.142;3.732;2023-04-24T02:33:37;8.60;99.90
59923;DHT22;45778;51.142;3.732;2023-04-24T02:36:03;8.60;99.90
59923;DHT22;45778;51.142;3.732;2023-04-24T02:38:29;8.60;99.90
59923;DHT22;45778;51.142;3.732;2023-04-24T02:40:55;8.70;99.90
59923;DHT22;45778;51.142;3.732;2023-04-24T02:43:20;8.70;99.90
59923;DHT22;45778;51.142;3.732;2023-04-24T02:45:46;8.80;99.90
59923;DHT22;45778;51.142;3.732;2023-04-24T02:48:12;8.90;99.90
59923;DHT22;45778;51.142;3.732;2023-04-24T02:50:37;8.90;99.90
59923;DHT22;45778;51.142;3.732;2023-04-24T02:53:03;8.90;99.90
59923;DHT22;45778;51.142;3.732;2023-04-24T02:55:29;8.90;99.90
59923;DHT22;45778;51.142;3.732;2023-04-24T02:57:55;8.90;99.90
59923;DHT22;45778;51.142;3.732;2023-04-24T03:00:21;8.90;99.90
59923;DHT22;45778;51.142;3.732;2023-04-24T03:02:47;8.90;99.90
59923;DHT22;45778;51.142;3.732;2023-04-24T03:05:13;8.80;99.90
59923;DHT22;45778;51.142;3.732;2023-04-24T03:07:39;8.90;99.90
59923;DHT22;45778;51.142;3.732;2023-04-24T03:10:05;8.90;99.90
59923;DHT22;45778;51.142;3.732;2023-04-24T03:12:31;8.80;99.90
59923;DHT22;45778;51.142;3.732;2023-04-24T03:14:57;8.70;99.90
59923;DHT22;45778;51.142;3.732;2023-04-24T03:17:22;8.80;99.90
59923;DHT22;45778;51.142;3.732;2023-04-24T03:19:48;8.80;99.90
59923;DHT22;45778;51.142;3.732;2023-04-24T03:22:14;8.80;99.90
59923;DHT22;45778;51.142;3.732;2023-04-24T03:24:39;8.70;99.90
59923;DHT22;45778;51.142;3.732;2023-04-24T03:27:05;8.70;99.90
59923;DHT22;45778;51.142;3.732;2023-04-24T03:29:31;8.80;99.90
59923;DHT22;45778;51.142;3.732;2023-04-24T03:31:57;8.60;99.90
59923;DHT22;45778;51.142;3.732;2023-04-24T03:34:22;8.60;99.90
59923;DHT22;45778;51.142;3.732;2023-04-24T03:36:48;8.50;99.90
59923;DHT22;45778;51.142;3.732;2023-04-24T03:39:14;8.50;99.90
59923;DHT22;45778;51.142;3.732;2023-04-24T03:41:39;8.80;99.90
59923;DHT22;45778;51.142;3.732;2023-04-24T03:44:05;8.50;99.90
59923;DHT22;45778;51.142;3.732;2023-04-24T03:46:31;8.40;99.90
59923;DHT22;45778;51.142;3.732;2023-04-24T03:48:56;8.30;99.90
59923;DHT22;45778;51.142;3.732;2023-04-24T03:51:22;8.50;99.90
59923;DHT22;45778;51.142;3.732;2023-04-24T03:53:48;8.30;99.90
59923;DHT22;45778;51.142;3.732;2023-04-24T03:56:14;8.30;99.90
59923;DHT22;45778;51.142;3.732;2023-04-24T03:58:40;8.30;99.90
59923;DHT22;45778;51.142;3.732;2023-04-24T04:01:06;8.30;99.90
59923;DHT22;45778;51.142;3.732;2023-04-24T04:03:31;8.30;99.90
59923;DHT22;45778;51.142;3.732;2023-04-24T04:05:57;8.30;99.90
59923;DHT22;45778;51.142;3.732;2023-04-24T04:08:23;8.30;99.90
59923;DHT22;45778;51.142;3.732;2023-04-24T04:10:48;8.30;99.90
59923;DHT22;45778;51.142;3.732;2023-04-24T04:13:14;8.30;99.90
59923;DHT22;45778;51.142;3.732;2023-04-24T04:15:40;8.20;99.90
59923;DHT22;45778;51.142;3.732;2023-04-24T04:18:06;8.20;99.90
59923;DHT22;45778;51.142;3.732;2023-04-24T04:20:31;8.20;99.90
59923;DHT22;45778;51.142;3.732;2023-04-24T04:22:57;8.20;99.90
59923;DHT22;45778;51.142;3.732;2023-04-24T04:25:23;8.10;99.90
59923;DHT22;45778;51.142;3.732;2023-04-24T04:27:48;8.00;99.90
59923;DHT22;45778;51.142;3.732;2023-04-24T04:30:14;8.20;99.90
59923;DHT22;45778;51.142;3.732;2023-04-24T04:32:40;8.10;99.90
59923;DHT22;45778;51.142;3.732;2023-04-24T04:35:06;8.10;99.90
59923;DHT22;45778;51.142;3.732;2023-04-24T04:37:33;8.10;99.90
59923;DHT22;45778;51.142;3.732;2023-04-24T04:39:59;8.20;99.90
59923;DHT22;45778;51.142;3.732;2023-04-24T04:42:25;8.10;99.90
59923;DHT22;45778;51.142;3.732;2023-04-24T04:44:52;8.10;99.90
59923;DHT22;45778;51.142;3.732;2023-04-24T04:47:20;8.20;99.90
59923;DHT22;45778;51.142;3.732;2023-04-24T04:49:47;8.20;99.90
59923;DHT22;45778;51.142;3.732;2023-04-24T04:52:13;8.20;99.90
59923;DHT22;45778;51.142;3.732;2023-04-24T04:54:39;8.10;99.90
59923;DHT22;45778;51.142;3.732;2023-04-24T04:57:05;8.10;99.90
59923;DHT22;45778;51.142;3.732;2023-04-24T04:59:31;8.10;99.90
59923;DHT22;45778;51.142;3.732;2023-04-24T05:01:57;8.10;99.90
59923;DHT22;45778;51.142;3.732;2023-04-24T05:04:22;8.20;99.90
59923;DHT22;45778;51.142;3.732;2023-04-24T05:06:48;8.00;99.90
59923;DHT22;45778;51.142;3.732;2023-04-24T05:09:16;8.10;99.90
59923;DHT22;45778;51.142;3.732;2023-04-24T05:11:42;8.10;99.90
59923;DHT22;45778;51.142;3.732;2023-04-24T05:14:07;8.10;99.90
59923;DHT22;45778;51.142;3.732;2023-04-24T05:16:33;8.10;99.90
59923;DHT22;45778;51.142;3.732;2023-04-24T05:18:59;8.10;99.90
59923;DHT22;45778;51.142;3.732;2023-04-24T05:21:24;8.10;99.90
59923;DHT22;45778;51.142;3.732;2023-04-24T05:23:50;8.10;99.90
59923;DHT22;45778;51.142;3.732;2023-04-24T05:26:16;8.20;99.90
59923;DHT22;45778;51.142;3.732;2023-04-24T05:28:43;8.30;99.90
59923;DHT22;45778;51.142;3.732;2023-04-24T05:31:08;8.40;99.90
59923;DHT22;45778;51.142;3.732;2023-04-24T05:33:34;8.30;99.90
59923;DHT22;45778;51.142;3.732;2023-04-24T05:36:00;8.30;99.90
59923;DHT22;45778;51.142;3.732;2023-04-24T05:38:25;8.40;99.90
59923;DHT22;45778;51.142;3.732;2023-04-24T05:40:51;8.50;99.90
59923;DHT22;45778;51.142;3.732;2023-04-24T05:43:17;8.40;99.90
59923;DHT22;45778;51.142;3.732;2023-04-24T05:45:42;8.30;99.90
59923;DHT22;45778;51.142;3.732;2023-04-24T05:48:08;8.40;99.90
59923;DHT22;45778;51.142;3.732;2023-04-24T05:50:33;8.30;99.90
59923;DHT22;45778;51.142;3.732;2023-04-24T05:52:59;8.30;99.90
59923;DHT22;45778;51.142;3.732;2023-04-24T05:55:27;8.30;99.90
59923;DHT22;45778;51.142;3.732;2023-04-24T05:57:52;8.40;99.90
59923;DHT22;45778;51.142;3.732;2023-04-24T06:00:18;8.40;99.90
59923;DHT22;45778;51.142;3.732;2023-04-24T06:02:45;8.50;99.90
59923;DHT22;45778;51.142;3.732;2023-04-24T06:05:11;8.40;99.90
59923;DHT22;45778;51.142;3.732;2023-04-24T06:07:37;8.40;99.90
59923;DHT22;45778;51.142;3.732;2023-04-24T06:10:03;8.50;99.90
59923;DHT22;45778;51.142;3.732;2023-04-24T06:12:29;8.50;99.90
59923;DHT22;45778;51.142;3.732;2023-04-24T06:14:55;8.60;99.90
59923;DHT22;45778;51.142;3.732;2023-04-24T06:17:21;8.60;99.90
59923;DHT22;45778;51.142;3.732;2023-04-24T06:19:47;8.60;99.90
59923;DHT22;45778;51.142;3.732;2023-04-24T06:22:12;8.70;99.90
59923;DHT22;45778;51.142;3.732;2023-04-24T06:24:39;8.80;99.90
59923;DHT22;45778;51.142;3.732;2023-04-24T06:27:05;8.80;99.90
59923;DHT22;45778;51.142;3.732;2023-04-24T06:29:31;9.10;99.90
59923;DHT22;45778;51.142;3.732;2023-04-24T06:31:57;8.90;99.90
59923;DHT22;45778;51.142;3.732;2023-04-24T06:34:22;8.90;99.90
59923;DHT22;45778;51.142;3.732;2023-04-24T06:36:48;8.90;99.90
59923;DHT22;45778;51.142;3.732;2023-04-24T06:39:14;9.00;99.90
59923;DHT22;45778;51.142;3.732;2023-04-24T06:41:40;9.10;99.90
59923;DHT22;45778;51.142;3.732;2023-04-24T06:44:05;9.00;99.90
59923;DHT22;45778;51.142;3.732;2023-04-24T06:46:31;9.20;99.90
59923;DHT22;45778;51.142;3.732;2023-04-24T06:48:57;9.20;99.90
59923;DHT22;45778;51.142;3.732;2023-04-24T06:51:23;9.20;99.90
59923;DHT22;45778;51.142;3.732;2023-04-24T06:53:50;9.10;99.90
59923;DHT22;45778;51.142;3.732;2023-04-24T06:56:16;9.20;99.90
59923;DHT22;45778;51.142;3.732;2023-04-24T06:58:42;9.20;99.90
59923;DHT22;45778;51.142;3.732;2023-04-24T07:01:08;9.00;99.90
59923;DHT22;45778;51.142;3.732;2023-04-24T07:03:33;8.70;99.90
59923;DHT22;45778;51.142;3.732;2023-04-24T07:05:59;8.70;99.90
59923;DHT22;45778;51.142;3.732;2023-04-24T07:08:25;8.80;99.90
59923;DHT22;45778;51.142;3.732;2023-04-24T07:10:51;8.60;99.90
59923;DHT22;45778;51.142;3.732;2023-04-24T07:13:17;8.80;99.90
59923;DHT22;45778;51.142;3.732;2023-04-24T07:15:43;8.90;99.90
59923;DHT22;45778;51.142;3.732;2023-04-24T07:18:09;8.90;99.90
59923;DHT22;45778;51.142;3.732;2023-04-24T07:20:34;9.00;99.90
59923;DHT22;45778;51.142;3.732;2023-04-24T07:23:00;9.30;99.90
59923;DHT22;45778;51.142;3.732;2023-04-24T07:25:26;9.30;99.90
59923;DHT22;45778;51.142;3.732;2023-04-24T07:27:52;9.40;99.90
59923;DHT22;45778;51.142;3.732;2023-04-24T07:30:18;9.50;99.90
59923;DHT22;45778;51.142;3.732;2023-04-24T07:32:44;9.70;99.90
59923;DHT22;45778;51.142;3.732;2023-04-24T07:35:09;9.50;99.90
59923;DHT22;45778;51.142;3.732;2023-04-24T07:37:36;9.60;99.90
59923;DHT22;45778;51.142;3.732;2023-04-24T07:40:01;9.60;99.90
59923;DHT22;45778;51.142;3.732;2023-04-24T07:42:28;9.60;99.90
59923;DHT22;45778;51.142;3.732;2023-04-24T07:44:55;9.70;99.90
59923;DHT22;45778;51.142;3.732;2023-04-24T07:47:21;9.50;99.90
59923;DHT22;45778;51.142;3.732;2023-04-24T07:49:47;9.40;99.90
59923;DHT22;45778;51.142;3.732;2023-04-24T07:52:12;9.40;99.90
59923;DHT22;45778;51.142;3.732;2023-04-24T07:54:38;9.20;99.90
59923;DHT22;45778;51.142;3.732;2023-04-24T07:57:04;9.20;99.90
59923;DHT22;45778;51.142;3.732;2023-04-24T07:59:32;9.30;99.90
59923;DHT22;45778;51.142;3.732;2023-04-24T08:01:57;9.40;99.90
59923;DHT22;45778;51.142;3.732;2023-04-24T08:04:23;9.40;99.90
59923;DHT22;45778;51.142;3.732;2023-04-24T08:06:49;9.40;99.90
59923;DHT22;45778;51.142;3.732;2023-04-24T08:09:14;9.60;99.90
59923;DHT22;45778;51.142;3.732;2023-04-24T08:11:40;9.60;99.90
59923;DHT22;45778;51.142;3.732;2023-04-24T08:14:06;9.60;99.90
59923;DHT22;45778;51.142;3.732;2023-04-24T08:16:32;9.90;99.90
59923;DHT22;45778;51.142;3.732;2023-04-24T08:18:58;10.30;99.90
59923;DHT22;45778;51.142;3.732;2023-04-24T08:21:24;10.30;99.90
59923;DHT22;45778;51.142;3.732;2023-04-24T08:23:51;10.20;99.90
59923;DHT22;45778;51.142;3.732;2023-04-24T08:26:17;10.00;99.90
59923;DHT22;45778;51.142;3.732;2023-04-24T08:28:43;10.00;99.90
59923;DHT22;45778;51.142;3.732;2023-04-24T08:31:08;10.30;99.90
59923;DHT22;45778;51.142;3.732;2023-04-24T08:33:34;10.40;99.90
59923;DHT22;45778;51.142;3.732;2023-04-24T08:36:06;10.40;99.90
59923;DHT22;45778;51.142;3.732;2023-04-24T08:38:32;10.30;99.90
59923;DHT22;45778;51.142;3.732;2023-04-24T08:40:59;10.20;99.90
59923;DHT22;45778;51.142;3.732;2023-04-24T08:43:26;10.30;99.90
59923;DHT22;45778;51.142;3.732;2023-04-24T08:45:52;10.40;99.90
59923;DHT22;45778;51.142;3.732;2023-04-24T08:48:18;10.60;99.90
59923;DHT22;45778;51.142;3.732;2023-04-24T08:50:44;10.50;99.90
59923;DHT22;45778;51.142;3.732;2023-04-24T08:53:10;10.50;99.90
59923;DHT22;45778;51.142;3.732;2023-04-24T08:55:37;10.30;99.90
59923;DHT22;45778;51.142;3.732;2023-04-24T08:58:04;10.30;99.90
59923;DHT22;45778;51.142;3.732;2023-04-24T09:00:29;10.30;99.90
59923;DHT22;45778;51.142;3.732;2023-04-24T09:02:56;10.30;99.90
59923;DHT22;45778;51.142;3.732;2023-04-24T09:05:22;10.50;99.90
59923;DHT22;45778;51.142;3.732;2023-04-24T09:07:56;10.50;99.90
59923;DHT22;45778;51.142;3.732;2023-04-24T09:10:23;10.40;99.90
59923;DHT22;45778;51.142;3.732;2023-04-24T09:12:52;10.20;99.90
59923;DHT22;45778;51.142;3.732;2023-04-24T09:15:19;10.30;99.90
59923;DHT22;45778;51.142;3.732;2023-04-24T09:17:48;10.50;99.90
59923;DHT22;45778;51.142;3.732;2023-04-24T09:20:14;10.40;99.90
59923;DHT22;45778;51.142;3.732;2023-04-24T09:22:39;10.20;99.90
59923;DHT22;45778;51.142;3.732;2023-04-24T09:25:07;10.20;99.90
59923;DHT22;45778;51.142;3.732;2023-04-24T09:27:34;10.10;99.90
59923;DHT22;45778;51.142;3.732;2023-04-24T09:30:00;10.20;99.90
59923;DHT22;45778;51.142;3.732;2023-04-24T09:32:26;10.20;99.90
59923;DHT22;45778;51.142;3.732;2023-04-24T09:35:11;10.20;99.90
59923;DHT22;45778;51.142;3.732;2023-04-24T09:37:46;10.40;99.90
59923;DHT22;45778;51.142;3.732;2023-04-24T09:40:20;10.50;99.90
59923;DHT22;45778;51.142;3.732;2023-04-24T09:42:56;10.50;99.90
59923;DHT22;45778;51.142;3.732;2023-04-24T09:45:28;10.50;99.90
59923;DHT22;45778;51.142;3.732;2023-04-24T09:47:54;10.70;99.90
59923;DHT22;45778;51.142;3.732;2023-04-24T09:50:21;10.90;99.90
59923;DHT22;45778;51.142;3.732;2023-04-24T09:52:56;11.00;99.90
59923;DHT22;45778;51.142;3.732;2023-04-24T09:55:22;11.10;99.90
59923;DHT22;45778;51.142;3.732;2023-04-24T09:57:56;11.30;99.90
59923;DHT22;45778;51.142;3.732;2023-04-24T10:00:40;11.20;99.90
59923;DHT22;45778;51.142;3.732;2023-04-24T10:03:06;11.20;99.90
59923;DHT22;45778;51.142;3.732;2023-04-24T10:05:36;11.40;99.90
59923;DHT22;45778;51.142;3.732;2023-04-24T10:08:13;11.30;99.90
59923;DHT22;45778;51.142;3.732;2023-04-24T10:10:44;11.00;99.90
59923;DHT22;45778;51.142;3.732;2023-04-24T10:13:11;10.90;99.90
59923;DHT22;45778;51.142;3.732;2023-04-24T10:15:38;11.00;99.90
59923;DHT22;45778;51.142;3.732;2023-04-24T10:18:06;11.20;99.90
59923;DHT22;45778;51.142;3.732;2023-04-24T10:20:33;11.30;99.90
59923;DHT22;45778;51.142;3.732;2023-04-24T10:23:00;11.30;99.90
59923;DHT22;45778;51.142;3.732;2023-04-24T10:25:31;11.20;99.90
59923;DHT22;45778;51.142;3.732;2023-04-24T10:27:58;11.40;99.90
59923;DHT22;45778;51.142;3.732;2023-04-24T10:30:26;11.60;99.90
59923;DHT22;45778;51.142;3.732;2023-04-24T10:32:52;11.70;99.90
59923;DHT22;45778;51.142;3.732;2023-04-24T10:35:18;11.80;99.90
59923;DHT22;45778;51.142;3.732;2023-04-24T10:37:56;11.80;99.90
59923;DHT22;45778;51.142;3.732;2023-04-24T10:40:27;12.00;99.90
59923;DHT22;45778;51.142;3.732;2023-04-24T10:42:56;12.10;99.90
59923;DHT22;45778;51.142;3.732;2023-04-24T10:45:23;12.10;99.90
59923;DHT22;45778;51.142;3.732;2023-04-24T10:48:05;12.10;99.90
59923;DHT22;45778;51.142;3.732;2023-04-24T10:53:15;11.80;99.90
59923;DHT22;45778;51.142;3.732;2023-04-24T10:55:43;11.50;99.90
59923;DHT22;45778;51.142;3.732;2023-04-24T10:58:09;11.60;99.90
59923;DHT22;45778;51.142;3.732;2023-04-24T11:00:40;11.80;99.90
59923;DHT22;45778;51.142;3.732;2023-04-24T11:03:22;11.80;99.90
59923;DHT22;45778;51.142;3.732;2023-04-24T11:05:52;11.80;99.90
59923;DHT22;45778;51.142;3.732;2023-04-24T11:08:26;12.10;99.90
59923;DHT22;45778;51.142;3.732;2023-04-24T11:10:58;12.20;99.90
59923;DHT22;45778;51.142;3.732;2023-04-24T11:14:01;12.50;99.90
59923;DHT22;45778;51.142;3.732;2023-04-24T11:16:21;12.60;99.90
59923;DHT22;45778;51.142;3.732;2023-04-24T11:18:51;12.80;99.90
59923;DHT22;45778;51.142;3.732;2023-04-24T11:21:20;12.40;99.90
59923;DHT22;45778;51.142;3.732;2023-04-24T11:23:46;12.00;99.90
59923;DHT22;45778;51.142;3.732;2023-04-24T11:26:17;12.00;99.90
59923;DHT22;45778;51.142;3.732;2023-04-24T11:28:50;11.90;99.90
59923;DHT22;45778;51.142;3.732;2023-04-24T11:31:37;12.00;99.90
59923;DHT22;45778;51.142;3.732;2023-04-24T11:34:11;11.90;99.90
59923;DHT22;45778;51.142;3.732;2023-04-24T11:36:37;12.10;99.90
59923;DHT22;45778;51.142;3.732;2023-04-24T11:39:03;12.30;99.90
59923;DHT22;45778;51.142;3.732;2023-04-24T11:41:29;12.50;99.90
59923;DHT22;45778;51.142;3.732;2023-04-24T11:43:56;12.50;99.90
59923;DHT22;45778;51.142;3.732;2023-04-24T11:46:22;12.00;99.90
59923;DHT22;45778;51.142;3.732;2023-04-24T11:48:48;12.10;99.90
59923;DHT22;45778;51.142;3.732;2023-04-24T11:51:14;12.20;99.90
59923;DHT22;45778;51.142;3.732;2023-04-24T11:53:40;12.30;99.90
59923;DHT22;45778;51.142;3.732;2023-04-24T11:56:06;12.60;99.90
59923;DHT22;45778;51.142;3.732;2023-04-24T11:58:38;13.00;99.90
59923;DHT22;45778;51.142;3.732;2023-04-24T12:01:04;13.20;99.90
59923;DHT22;45778;51.142;3.732;2023-04-24T12:03:31;13.70;99.90
59923;DHT22;45778;51.142;3.732;2023-04-24T12:06:07;14.50;99.90
59923;DHT22;45778;51.142;3.732;2023-04-24T12:08:34;15.30;99.90
59923;DHT22;45778;51.142;3.732;2023-04-24T12:11:02;15.70;96.90
59923;DHT22;45778;51.142;3.732;2023-04-24T12:13:28;15.60;95.70
59923;DHT22;45778;51.142;3.732;2023-04-24T12:15:54;14.90;97.50
59923;DHT22;45778;51.142;3.732;2023-04-24T12:18:22;14.00;97.90
59923;DHT22;45778;51.142;3.732;2023-04-24T12:20:49;14.00;98.60
59923;DHT22;45778;51.142;3.732;2023-04-24T12:23:15;13.60;98.90
59923;DHT22;45778;51.142;3.732;2023-04-24T12:25:40;13.40;99.20
59923;DHT22;45778;51.142;3.732;2023-04-24T12:30:48;13.30;99.30
59923;DHT22;45778;51.142;3.732;2023-04-24T12:33:18;13.40;99.30
59923;DHT22;45778;51.142;3.732;2023-04-24T12:35:44;13.40;98.40
59923;DHT22;45778;51.142;3.732;2023-04-24T12:38:12;13.20;99.90
59923;DHT22;45778;51.142;3.732;2023-04-24T12:40:39;13.10;99.90
59923;DHT22;45778;51.142;3.732;2023-04-24T12:43:20;13.00;99.90
59923;DHT22;45778;51.142;3.732;2023-04-24T12:45:47;13.60;99.90
59923;DHT22;45778;51.142;3.732;2023-04-24T12:48:13;13.70;99.90
59923;DHT22;45778;51.142;3.732;2023-04-24T12:50:39;14.90;99.90
59923;DHT22;45778;51.142;3.732;2023-04-24T12:53:07;15.50;97.40
59923;DHT22;45778;51.142;3.732;2023-04-24T12:55:33;15.60;96.70
59923;DHT22;45778;51.142;3.732;2023-04-24T12:57:59;15.40;97.40
59923;DHT22;45778;51.142;3.732;2023-04-24T13:00:24;15.50;96.90
59923;DHT22;45778;51.142;3.732;2023-04-24T13:02:50;16.30;95.20
59923;DHT22;45778;51.142;3.732;2023-04-24T13:05:16;16.70;94.80
59923;DHT22;45778;51.142;3.732;2023-04-24T13:07:42;16.40;93.90
59923;DHT22;45778;51.142;3.732;2023-04-24T13:10:08;15.00;95.30
59923;DHT22;45778;51.142;3.732;2023-04-24T13:12:34;14.60;95.80
59923;DHT22;45778;51.142;3.732;2023-04-24T13:15:00;15.10;95.70
59923;DHT22;45778;51.142;3.732;2023-04-24T13:17:26;15.20;95.30
59923;DHT22;45778;51.142;3.732;2023-04-24T13:19:53;15.10;96.30
59923;DHT22;45778;51.142;3.732;2023-04-24T13:22:20;15.80;94.50
59923;DHT22;45778;51.142;3.732;2023-04-24T13:24:46;16.80;93.80
59923;DHT22;45778;51.142;3.732;2023-04-24T13:27:14;17.80;91.20
59923;DHT22;45778;51.142;3.732;2023-04-24T13:29:40;17.90;87.50
59923;DHT22;45778;51.142;3.732;2023-04-24T13:32:06;18.40;88.40
59923;DHT22;45778;51.142;3.732;2023-04-24T13:34:32;18.40;84.80
59923;DHT22;45778;51.142;3.732;2023-04-24T13:36:58;18.10;87.20
59923;DHT22;45778;51.142;3.732;2023-04-24T13:39:24;18.90;86.00
59923;DHT22;45778;51.142;3.732;2023-04-24T13:41:51;18.90;83.00
59923;DHT22;45778;51.142;3.732;2023-04-24T13:44:18;18.40;83.40
59923;DHT22;45778;51.142;3.732;2023-04-24T13:46:45;17.80;86.10
59923;DHT22;45778;51.142;3.732;2023-04-24T13:49:12;17.20;86.70
59923;DHT22;45778;51.142;3.732;2023-04-24T13:51:38;17.10;84.10
59923;DHT22;45778;51.142;3.732;2023-04-24T13:54:05;16.70;86.70
59923;DHT22;45778;51.142;3.732;2023-04-24T13:56:31;18.30;85.60
59923;DHT22;45778;51.142;3.732;2023-04-24T13:58:56;18.00;84.90
59923;DHT22;45778;51.142;3.732;2023-04-24T14:01:22;17.90;84.70
59923;DHT22;45778;51.142;3.732;2023-04-24T14:03:55;16.40;86.30
59923;DHT22;45778;51.142;3.732;2023-04-24T14:06:21;15.80;88.70
59923;DHT22;45778;51.142;3.732;2023-04-24T14:08:48;16.10;88.80
59923;DHT22;45778;51.142;3.732;2023-04-24T14:11:14;16.80;87.00
59923;DHT22;45778;51.142;3.732;2023-04-24T14:13:44;16.30;88.00
59923;DHT22;45778;51.142;3.732;2023-04-24T14:16:11;16.40;88.80
59923;DHT22;45778;51.142;3.732;2023-04-24T14:18:37;16.60;86.40
59923;DHT22;45778;51.142;3.732;2023-04-24T14:21:03;16.00;88.40
59923;DHT22;45778;51.142;3.732;2023-04-24T14:23:29;16.80;88.80
59923;DHT22;45778;51.142;3.732;2023-04-24T14:25:56;18.10;86.50
59923;DHT22;45778;51.142;3.732;2023-04-24T14:28:22;18.40;81.70
59923;DHT22;45778;51.142;3.732;2023-04-24T14:30:48;18.30;83.90
59923;DHT22;45778;51.142;3.732;2023-04-24T14:33:14;16.40;85.60
59923;DHT22;45778;51.142;3.732;2023-04-24T14:35:40;15.70;90.50
59923;DHT22;45778;51.142;3.732;2023-04-24T14:38:07;15.90;90.40
59923;DHT22;45778;51.142;3.732;2023-04-24T14:40:33;16.30;90.00
59923;DHT22;45778;51.142;3.732;2023-04-24T14:42:59;15.90;90.50
59923;DHT22;45778;51.142;3.732;2023-04-24T14:45:26;16.50;85.40
59923;DHT22;45778;51.142;3.732;2023-04-24T14:47:52;16.10;87.60
59923;DHT22;45778;51.142;3.732;2023-04-24T14:50:18;15.30;90.80
59923;DHT22;45778;51.142;3.732;2023-04-24T14:52:44;14.60;91.90
59923;DHT22;45778;51.142;3.732;2023-04-24T14:55:10;14.30;93.70
59923;DHT22;45778;51.142;3.732;2023-04-24T14:57:36;14.40;93.20
59923;DHT22;45778;51.142;3.732;2023-04-24T15:00:05;14.40;93.10
59923;DHT22;45778;51.142;3.732;2023-04-24T15:02:33;14.20;92.80
59923;DHT22;45778;51.142;3.732;2023-04-24T15:04:59;13.90;93.20
59923;DHT22;45778;51.142;3.732;2023-04-24T15:07:25;13.70;94.00
59923;DHT22;45778;51.142;3.732;2023-04-24T15:09:50;13.70;95.60
59923;DHT22;45778;51.142;3.732;2023-04-24T15:12:16;13.70;94.50
59923;DHT22;45778;51.142;3.732;2023-04-24T15:14:42;13.90;95.20
59923;DHT22;45778;51.142;3.732;2023-04-24T15:17:08;14.40;93.60
59923;DHT22;45778;51.142;3.732;2023-04-24T15:19:33;14.90;93.00
59923;DHT22;45778;51.142;3.732;2023-04-24T15:21:59;15.50;93.00
59923;DHT22;45778;51.142;3.732;2023-04-24T15:24:25;15.90;91.10
59923;DHT22;45778;51.142;3.732;2023-04-24T15:26:50;15.50;92.60
59923;DHT22;45778;51.142;3.732;2023-04-24T15:29:16;15.80;91.50
59923;DHT22;45778;51.142;3.732;2023-04-24T15:31:42;15.50;90.90
59923;DHT22;45778;51.142;3.732;2023-04-24T15:34:07;14.30;93.30
59923;DHT22;45778;51.142;3.732;2023-04-24T15:36:34;14.20;94.20
59923;DHT22;45778;51.142;3.732;2023-04-24T15:39:01;14.20;94.50
59923;DHT22;45778;51.142;3.732;2023-04-24T15:41:27;14.60;93.50
59923;DHT22;45778;51.142;3.732;2023-04-24T15:43:53;14.50;92.40